KAKQ/AKQ METAR and TAF weather

Enter ICAO airport designator
Station Type Date Time Source
KAKQ METAR 2018/09/21 22:54 UTC NOAA

KAKQ 212254Z AUTO 00000KT 10SM CLR 26/21 A3009 RMK AO2 SLP190 T02560206


Station Type Date Time Source
KAKQ Decoded METAR 2018/09/21 22:54 UTC NOAA

WAKEFIELD MUNICIPAL AIRPOR, VA, United States (KAKQ) 36-59N 077-00W 33M
Sep 21, 2018 - 06:54 PM EDT / 2018.09.21 2254 UTC
Wind: Calm:0
Visibility: 10 mile(s):0
Sky conditions: clear
Temperature: 78.1 F (25.6 C)
Dew Point: 69.1 F (20.6 C)
Relative Humidity: 73%
Pressure (altimeter): 30.09 in. Hg (1018 hPa)
ob: KAKQ 212254Z AUTO 00000KT 10SM CLR 26/21 A3009 RMK AO2 SLP190 T02560206
cycle: 23

Station Type Date Time Source
KAKQ TAF UTC NOAA

Error!


Example: see airport list